sensor_id;sensor_type;location;lat;lon;timestamp;P1;P2;P0
46381;PMS5003;66809;52.974;-2.514;2023-02-08T00:01:47;40.583333333333336;36.45;
46381;PMS5003;66809;52.974;-2.514;2023-02-08T00:03:48;40.9;36.75;
46381;PMS5003;66809;52.974;-2.514;2023-02-08T00:05:48;41.35;37.13333333333333;
46381;PMS5003;66809;52.974;-2.514;2023-02-08T00:07:48;42.083333333333336;37.766666666666666;
46381;PMS5003;66809;52.974;-2.514;2023-02-08T00:09:47;43.0;38.45;
46381;PMS5003;66809;52.974;-2.514;2023-02-08T00:11:48;43.18333333333333;38.45;
46381;PMS5003;66809;52.974;-2.514;2023-02-08T00:13:48;43.81666666666667;39.06666666666667;
46381;PMS5003;66809;52.974;-2.514;2023-02-08T00:15:47;44.13333333333333;39.5;
46381;PMS5003;66809;52.974;-2.514;2023-02-08T00:17:48;44.4;39.75;
46381;PMS5003;66809;52.974;-2.514;2023-02-08T00:19:48;44.733333333333334;39.96666666666667;
46381;PMS5003;66809;52.974;-2.514;2023-02-08T00:21:48;44.81666666666667;40.166666666666664;
46381;PMS5003;66809;52.974;-2.514;2023-02-08T00:23:47;44.766666666666666;40.166666666666664;
46381;PMS5003;66809;52.974;-2.514;2023-02-08T00:25:48;45.11666666666667;40.516666666666666;
46381;PMS5003;66809;52.974;-2.514;2023-02-08T00:27:48;45.75;41.05;
46381;PMS5003;66809;52.974;-2.514;2023-02-08T00:29:48;46.016666666666666;41.28333333333333;
46381;PMS5003;66809;52.974;-2.514;2023-02-08T00:31:47;46.11666666666667;41.36666666666667;
46381;PMS5003;66809;52.974;-2.514;2023-02-08T00:33:48;46.483333333333334;41.6;
46381;PMS5003;66809;52.974;-2.514;2023-02-08T00:35:48;47.0;42.11666666666667;
46381;PMS5003;66809;52.974;-2.514;2023-02-08T00:37:47;47.56666666666667;42.55;
46381;PMS5003;66809;52.974;-2.514;2023-02-08T00:39:48;47.65;42.46666666666667;
46381;PMS5003;66809;52.974;-2.514;2023-02-08T00:41:48;47.6;42.55;
46381;PMS5003;66809;52.974;-2.514;2023-02-08T00:43:48;47.75;42.71666666666667;
46381;PMS5003;66809;52.974;-2.514;2023-02-08T00:45:52;47.68333333333333;42.7;
46381;PMS5003;66809;52.974;-2.514;2023-02-08T00:47:48;47.43333333333333;42.483333333333334;
46381;PMS5003;66809;52.974;-2.514;2023-02-08T00:49:48;47.28333333333333;42.45;
46381;PMS5003;66809;52.974;-2.514;2023-02-08T00:51:47;47.53333333333333;42.766666666666666;
46381;PMS5003;66809;52.974;-2.514;2023-02-08T00:53:48;48.06666666666667;43.15;
46381;PMS5003;66809;52.974;-2.514;2023-02-08T00:55:49;48.45;43.38333333333333;
46381;PMS5003;66809;52.974;-2.514;2023-02-08T00:57:48;48.78333333333333;43.65;
46381;PMS5003;66809;52.974;-2.514;2023-02-08T00:59:48;48.86666666666667;43.85;
46381;PMS5003;66809;52.974;-2.514;2023-02-08T01:01:47;48.483333333333334;43.43333333333333;
46381;PMS5003;66809;52.974;-2.514;2023-02-08T01:03:48;48.733333333333334;43.65;
46381;PMS5003;66809;52.974;-2.514;2023-02-08T01:05:48;49.05;43.916666666666664;
46381;PMS5003;66809;52.974;-2.514;2023-02-08T01:07:48;49.05;43.85;
46381;PMS5003;66809;52.974;-2.514;2023-02-08T01:09:47;49.083333333333336;43.95;
46381;PMS5003;66809;52.974;-2.514;2023-02-08T01:11:48;49.55;44.5;
46381;PMS5003;66809;52.974;-2.514;2023-02-08T01:13:48;49.55;44.46666666666667;
46381;PMS5003;66809;52.974;-2.514;2023-02-08T01:15:48;49.88333333333333;44.63333333333333;
46381;PMS5003;66809;52.974;-2.514;2023-02-08T01:17:48;50.13333333333333;44.833333333333336;
46381;PMS5003;66809;52.974;-2.514;2023-02-08T01:19:47;49.88333333333333;44.7;
46381;PMS5003;66809;52.974;-2.514;2023-02-08T01:21:47;49.983333333333334;44.81666666666667;
46381;PMS5003;66809;52.974;-2.514;2023-02-08T01:23:48;50.36666666666667;45.13333333333333;
46381;PMS5003;66809;52.974;-2.514;2023-02-08T01:25:48;50.416666666666664;45.266666666666666;
46381;PMS5003;66809;52.974;-2.514;2023-02-08T01:27:47;49.95;44.85;
46381;PMS5003;66809;52.974;-2.514;2023-02-08T01:29:48;49.833333333333336;44.85;
46381;PMS5003;66809;52.974;-2.514;2023-02-08T01:31:48;50.483333333333334;45.38333333333333;
46381;PMS5003;66809;52.974;-2.514;2023-02-08T01:33:48;50.4;45.35;
46381;PMS5003;66809;52.974;-2.514;2023-02-08T01:35:49;50.43333333333333;45.266666666666666;
46381;PMS5003;66809;52.974;-2.514;2023-02-08T01:37:48;50.31666666666667;45.3;
46381;PMS5003;66809;52.974;-2.514;2023-02-08T01:39:47;50.46666666666667;45.583333333333336;
46381;PMS5003;66809;52.974;-2.514;2023-02-08T01:41:48;50.45;45.516666666666666;
46381;PMS5003;66809;52.974;-2.514;2023-02-08T01:44:05;50.6;45.75;
46381;PMS5003;66809;52.974;-2.514;2023-02-08T01:45:48;50.75;45.93333333333333;
46381;PMS5003;66809;52.974;-2.514;2023-02-08T01:47:49;51.03333333333333;46.2;
46381;PMS5003;66809;52.974;-2.514;2023-02-08T01:49:48;51.6;46.68333333333333;
46381;PMS5003;66809;52.974;-2.514;2023-02-08T01:51:49;51.65;46.666666666666664;
46381;PMS5003;66809;52.974;-2.514;2023-02-08T01:53:48;52.016666666666666;47.083333333333336;
46381;PMS5003;66809;52.974;-2.514;2023-02-08T01:55:50;52.06666666666667;47.06666666666667;
46381;PMS5003;66809;52.974;-2.514;2023-02-08T01:57:48;52.13333333333333;47.0;
46381;PMS5003;66809;52.974;-2.514;2023-02-08T01:59:48;52.233333333333334;47.166666666666664;
46381;PMS5003;66809;52.974;-2.514;2023-02-08T02:01:48;52.65;47.56666666666667;
46381;PMS5003;66809;52.974;-2.514;2023-02-08T02:03:48;52.65;47.583333333333336;
46381;PMS5003;66809;52.974;-2.514;2023-02-08T02:05:49;52.6;47.53333333333333;
46381;PMS5003;66809;52.974;-2.514;2023-02-08T02:07:47;52.53333333333333;47.63333333333333;
46381;PMS5003;66809;52.974;-2.514;2023-02-08T02:09:50;52.71666666666667;47.81666666666667;
46381;PMS5003;66809;52.974;-2.514;2023-02-08T02:11:48;52.78333333333333;47.86666666666667;
46381;PMS5003;66809;52.974;-2.514;2023-02-08T02:13:47;52.61666666666667;47.65;
46381;PMS5003;66809;52.974;-2.514;2023-02-08T02:15:48;52.18333333333333;47.43333333333333;
46381;PMS5003;66809;52.974;-2.514;2023-02-08T02:17:48;52.333333333333336;47.61666666666667;
46381;PMS5003;66809;52.974;-2.514;2023-02-08T02:19:49;52.93333333333333;48.13333333333333;
46381;PMS5003;66809;52.974;-2.514;2023-02-08T02:21:51;52.78333333333333;48.016666666666666;
46381;PMS5003;66809;52.974;-2.514;2023-02-08T02:24:58;52.766666666666666;48.05;
46381;PMS5003;66809;52.974;-2.514;2023-02-08T02:25:51;52.96666666666667;48.1;
46381;PMS5003;66809;52.974;-2.514;2023-02-08T02:27:54;53.13333333333333;48.28333333333333;
46381;PMS5003;66809;52.974;-2.514;2023-02-08T02:31:00;53.666666666666664;48.65;
46381;PMS5003;66809;52.974;-2.514;2023-02-08T02:31:52;53.516666666666666;48.55;
46381;PMS5003;66809;52.974;-2.514;2023-02-08T02:33:51;53.733333333333334;48.75;
46381;PMS5003;66809;52.974;-2.514;2023-02-08T02:35:49;53.483333333333334;48.61666666666667;
46381;PMS5003;66809;52.974;-2.514;2023-02-08T02:37:50;53.63333333333333;48.78333333333333;
46381;PMS5003;66809;52.974;-2.514;2023-02-08T02:39:49;53.71666666666667;48.78333333333333;
46381;PMS5003;66809;52.974;-2.514;2023-02-08T02:41:50;54.05;49.05;
46381;PMS5003;66809;52.974;-2.514;2023-02-08T02:43:50;53.71666666666667;48.733333333333334;
46381;PMS5003;66809;52.974;-2.514;2023-02-08T02:45:49;53.6;48.46666666666667;
46381;PMS5003;66809;52.974;-2.514;2023-02-08T02:47:49;54.06666666666667;48.93333333333333;
46381;PMS5003;66809;52.974;-2.514;2023-02-08T02:49:48;54.18333333333333;48.93333333333333;
46381;PMS5003;66809;52.974;-2.514;2023-02-08T02:51:49;53.78333333333333;48.55;
46381;PMS5003;66809;52.974;-2.514;2023-02-08T02:53:49;53.18333333333333;48.06666666666667;
46381;PMS5003;66809;52.974;-2.514;2023-02-08T02:55:50;52.65;47.7;
46381;PMS5003;66809;52.974;-2.514;2023-02-08T02:57:47;52.233333333333334;47.5;
46381;PMS5003;66809;52.974;-2.514;2023-02-08T02:59:48;52.61666666666667;47.68333333333333;
46381;PMS5003;66809;52.974;-2.514;2023-02-08T03:01:48;52.833333333333336;47.916666666666664;
46381;PMS5003;66809;52.974;-2.514;2023-02-08T03:03:48;52.78333333333333;47.916666666666664;
46381;PMS5003;66809;52.974;-2.514;2023-02-08T03:05:48;52.25;47.43333333333333;
46381;PMS5003;66809;52.974;-2.514;2023-02-08T03:07:53;52.68333333333333;47.68333333333333;
46381;PMS5003;66809;52.974;-2.514;2023-02-08T03:09:50;52.61666666666667;47.7;
46381;PMS5003;66809;52.974;-2.514;2023-02-08T03:11:50;52.166666666666664;47.2;
46381;PMS5003;66809;52.974;-2.514;2023-02-08T03:13:53;52.4;47.36666666666667;
46381;PMS5003;66809;52.974;-2.514;2023-02-08T03:15:50;52.55;47.46666666666667;
46381;PMS5003;66809;52.974;-2.514;2023-02-08T03:17:51;52.3;47.18333333333333;
46381;PMS5003;66809;52.974;-2.514;2023-02-08T03:19:50;51.983333333333334;46.983333333333334;
46381;PMS5003;66809;52.974;-2.514;2023-02-08T03:21:50;52.55;47.43333333333333;
46381;PMS5003;66809;52.974;-2.514;2023-02-08T03:23:50;52.53333333333333;47.416666666666664;
46381;PMS5003;66809;52.974;-2.514;2023-02-08T03:25:49;52.5;47.36666666666667;
46381;PMS5003;66809;52.974;-2.514;2023-02-08T03:27:50;53.016666666666666;47.88333333333333;
46381;PMS5003;66809;52.974;-2.514;2023-02-08T03:29:49;52.96666666666667;47.95;
46381;PMS5003;66809;52.974;-2.514;2023-02-08T03:31:49;53.0;47.95;
46381;PMS5003;66809;52.974;-2.514;2023-02-08T03:33:48;53.3;48.25;
46381;PMS5003;66809;52.974;-2.514;2023-02-08T03:35:48;53.86666666666667;48.71666666666667;
46381;PMS5003;66809;52.974;-2.514;2023-02-08T03:37:49;54.3;48.95;
46381;PMS5003;66809;52.974;-2.514;2023-02-08T03:39:48;54.75;49.46666666666667;
46381;PMS5003;66809;52.974;-2.514;2023-02-08T03:41:48;55.2;49.93333333333333;
46381;PMS5003;66809;52.974;-2.514;2023-02-08T03:43:49;55.78333333333333;50.416666666666664;
46381;PMS5003;66809;52.974;-2.514;2023-02-08T03:45:49;56.53333333333333;51.11666666666667;
46381;PMS5003;66809;52.974;-2.514;2023-02-08T03:47:48;56.55;51.1;
46381;PMS5003;66809;52.974;-2.514;2023-02-08T03:49:48;56.68333333333333;51.43333333333333;
46381;PMS5003;66809;52.974;-2.514;2023-02-08T03:51:48;57.083333333333336;51.88333333333333;
46381;PMS5003;66809;52.974;-2.514;2023-02-08T03:53:48;57.81666666666667;52.416666666666664;
46381;PMS5003;66809;52.974;-2.514;2023-02-08T03:55:50;58.7;53.28333333333333;
46381;PMS5003;66809;52.974;-2.514;2023-02-08T03:57:49;59.65;54.03333333333333;
46381;PMS5003;66809;52.974;-2.514;2023-02-08T03:59:48;59.666666666666664;54.18333333333333;
46381;PMS5003;66809;52.974;-2.514;2023-02-08T04:01:49;59.85;54.35;
46381;PMS5003;66809;52.974;-2.514;2023-02-08T04:03:48;60.36666666666667;54.86666666666667;
46381;PMS5003;66809;52.974;-2.514;2023-02-08T04:05:48;61.53333333333333;55.88333333333333;
46381;PMS5003;66809;52.974;-2.514;2023-02-08T04:07:47;61.7;56.083333333333336;
46381;PMS5003;66809;52.974;-2.514;2023-02-08T04:09:48;61.63333333333333;55.916666666666664;
46381;PMS5003;66809;52.974;-2.514;2023-02-08T04:11:48;62.3;56.666666666666664;
46381;PMS5003;66809;52.974;-2.514;2023-02-08T04:13:47;62.766666666666666;57.166666666666664;
46381;PMS5003;66809;52.974;-2.514;2023-02-08T04:15:48;63.4;57.68333333333333;
46381;PMS5003;66809;52.974;-2.514;2023-02-08T04:17:48;64.06666666666666;58.38333333333333;
46381;PMS5003;66809;52.974;-2.514;2023-02-08T04:19:48;64.61666666666666;58.8;
46381;PMS5003;66809;52.974;-2.514;2023-02-08T04:21:47;64.56666666666666;58.9;
46381;PMS5003;66809;52.974;-2.514;2023-02-08T04:23:48;64.86666666666666;59.18333333333333;
46381;PMS5003;66809;52.974;-2.514;2023-02-08T04:25:48;65.23333333333333;59.583333333333336;
46381;PMS5003;66809;52.974;-2.514;2023-02-08T04:27:47;65.75;59.96666666666667;
46381;PMS5003;66809;52.974;-2.514;2023-02-08T04:29:48;66.01666666666667;60.233333333333334;
46381;PMS5003;66809;52.974;-2.514;2023-02-08T04:31:48;66.58333333333333;60.75;
46381;PMS5003;66809;52.974;-2.514;2023-02-08T04:33:48;67.3;61.31666666666667;
46381;PMS5003;66809;52.974;-2.514;2023-02-08T04:35:47;67.85;61.85;
46381;PMS5003;66809;52.974;-2.514;2023-02-08T04:37:48;67.73333333333333;61.983333333333334;
46381;PMS5003;66809;52.974;-2.514;2023-02-08T04:39:48;68.06666666666666;62.2;
46381;PMS5003;66809;52.974;-2.514;2023-02-08T04:41:47;68.33333333333333;62.46666666666667;
46381;PMS5003;66809;52.974;-2.514;2023-02-08T04:43:48;69.05;63.1;
46381;PMS5003;66809;52.974;-2.514;2023-02-08T04:45:48;69.06666666666666;63.21666666666667;
46381;PMS5003;66809;52.974;-2.514;2023-02-08T04:47:48;69.43333333333334;63.46666666666667;
46381;PMS5003;66809;52.974;-2.514;2023-02-08T04:49:48;69.9;63.68333333333333;
46381;PMS5003;66809;52.974;-2.514;2023-02-08T04:51:47;70.68333333333334;64.23333333333333;
46381;PMS5003;66809;52.974;-2.514;2023-02-08T04:53:48;70.93333333333334;64.61666666666666;
46381;PMS5003;66809;52.974;-2.514;2023-02-08T04:55:48;71.06666666666666;64.61666666666666;
46381;PMS5003;66809;52.974;-2.514;2023-02-08T04:57:48;71.2;64.83333333333333;
46381;PMS5003;66809;52.974;-2.514;2023-02-08T04:59:48;71.43333333333334;65.08333333333333;
46381;PMS5003;66809;52.974;-2.514;2023-02-08T05:01:47;71.88333333333334;65.48333333333333;
46381;PMS5003;66809;52.974;-2.514;2023-02-08T05:03:48;72.0;65.6;
46381;PMS5003;66809;52.974;-2.514;2023-02-08T05:05:54;72.08333333333333;65.68333333333334;
46381;PMS5003;66809;52.974;-2.514;2023-02-08T05:07:48;72.18333333333334;65.83333333333333;
46381;PMS5003;66809;52.974;-2.514;2023-02-08T05:09:47;72.81666666666666;66.48333333333333;
46381;PMS5003;66809;52.974;-2.514;2023-02-08T05:11:48;73.25;66.86666666666666;
46381;PMS5003;66809;52.974;-2.514;2023-02-08T05:13:48;73.3;67.0;
46381;PMS5003;66809;52.974;-2.514;2023-02-08T05:15:47;73.6;67.33333333333333;
46381;PMS5003;66809;52.974;-2.514;2023-02-08T05:17:48;73.76666666666667;67.46666666666667;
46381;PMS5003;66809;52.974;-2.514;2023-02-08T05:19:48;73.48333333333333;67.16666666666667;
46381;PMS5003;66809;52.974;-2.514;2023-02-08T05:21:47;73.85;67.35;
46381;PMS5003;66809;52.974;-2.514;2023-02-08T05:23:48;74.06666666666666;67.63333333333334;
46381;PMS5003;66809;52.974;-2.514;2023-02-08T05:25:52;74.36666666666666;67.83333333333333;
46381;PMS5003;66809;52.974;-2.514;2023-02-08T05:27:48;74.33333333333333;67.81666666666666;
46381;PMS5003;66809;52.974;-2.514;2023-02-08T05:29:48;74.26666666666667;67.7;
46381;PMS5003;66809;52.974;-2.514;2023-02-08T05:31:47;74.25;67.75;
46381;PMS5003;66809;52.974;-2.514;2023-02-08T05:33:48;73.91666666666667;67.58333333333333;
46381;PMS5003;66809;52.974;-2.514;2023-02-08T05:35:48;73.63333333333334;67.25;
46381;PMS5003;66809;52.974;-2.514;2023-02-08T05:37:48;73.86666666666666;67.23333333333333;
46381;PMS5003;66809;52.974;-2.514;2023-02-08T05:39:47;74.46666666666667;67.61666666666666;
46381;PMS5003;66809;52.974;-2.514;2023-02-08T05:41:48;74.43333333333334;67.53333333333333;
46381;PMS5003;66809;52.974;-2.514;2023-02-08T05:43:48;74.23333333333333;67.28333333333333;
46381;PMS5003;66809;52.974;-2.514;2023-02-08T05:45:48;74.5;67.48333333333333;
46381;PMS5003;66809;52.974;-2.514;2023-02-08T05:47:48;74.2;67.26666666666667;
46381;PMS5003;66809;52.974;-2.514;2023-02-08T05:49:48;74.3;67.45;
46381;PMS5003;66809;52.974;-2.514;2023-02-08T05:51:48;74.16666666666667;67.48333333333333;
46381;PMS5003;66809;52.974;-2.514;2023-02-08T05:53:47;74.31666666666666;67.51666666666667;
46381;PMS5003;66809;52.974;-2.514;2023-02-08T05:55:48;74.33333333333333;67.71666666666667;
46381;PMS5003;66809;52.974;-2.514;2023-02-08T05:57:48;74.2;67.58333333333333;
46381;PMS5003;66809;52.974;-2.514;2023-02-08T05:59:47;74.06666666666666;67.33333333333333;
46381;PMS5003;66809;52.974;-2.514;2023-02-08T06:01:48;73.86666666666666;67.13333333333334;
46381;PMS5003;66809;52.974;-2.514;2023-02-08T06:03:48;73.63333333333334;66.95;
46381;PMS5003;66809;52.974;-2.514;2023-02-08T06:05:47;73.38333333333334;66.8;
46381;PMS5003;66809;52.974;-2.514;2023-02-08T06:07:48;72.81666666666666;66.3;
46381;PMS5003;66809;52.974;-2.514;2023-02-08T06:09:48;72.63333333333334;66.25;
46381;PMS5003;66809;52.974;-2.514;2023-02-08T06:11:48;72.66666666666667;66.23333333333333;
46381;PMS5003;66809;52.974;-2.514;2023-02-08T06:13:47;72.65;66.0;
46381;PMS5003;66809;52.974;-2.514;2023-02-08T06:15:48;72.83333333333333;66.15;
46381;PMS5003;66809;52.974;-2.514;2023-02-08T06:17:48;72.93333333333334;66.18333333333334;
46381;PMS5003;66809;52.974;-2.514;2023-02-08T06:19:48;73.4;66.55;
46381;PMS5003;66809;52.974;-2.514;2023-02-08T06:21:48;73.23333333333333;66.43333333333334;
46381;PMS5003;66809;52.974;-2.514;2023-02-08T06:23:47;73.01666666666667;66.16666666666667;
46381;PMS5003;66809;52.974;-2.514;2023-02-08T06:25:48;72.58333333333333;65.96666666666667;
46381;PMS5003;66809;52.974;-2.514;2023-02-08T06:27:47;72.33333333333333;65.76666666666667;
46381;PMS5003;66809;52.974;-2.514;2023-02-08T06:29:48;72.35;65.78333333333333;
46381;PMS5003;66809;52.974;-2.514;2023-02-08T06:31:48;72.21666666666667;65.75;
46381;PMS5003;66809;52.974;-2.514;2023-02-08T06:33:48;72.45;65.98333333333333;
46381;PMS5003;66809;52.974;-2.514;2023-02-08T06:35:50;72.28333333333333;65.93333333333334;
46381;PMS5003;66809;52.974;-2.514;2023-02-08T06:37:48;72.05;65.83333333333333;
46381;PMS5003;66809;52.974;-2.514;2023-02-08T06:39:48;71.31666666666666;65.4;
46381;PMS5003;66809;52.974;-2.514;2023-02-08T06:41:47;71.25;65.4;
46381;PMS5003;66809;52.974;-2.514;2023-02-08T06:43:48;70.8;65.05;
46381;PMS5003;66809;52.974;-2.514;2023-02-08T06:45:48;70.41666666666667;64.73333333333333;
46381;PMS5003;66809;52.974;-2.514;2023-02-08T06:47:47;70.23333333333333;64.56666666666666;
46381;PMS5003;66809;52.974;-2.514;2023-02-08T06:49:48;69.73333333333333;64.1;
46381;PMS5003;66809;52.974;-2.514;2023-02-08T06:51:48;69.6;64.05;
46381;PMS5003;66809;52.974;-2.514;2023-02-08T06:53:48;69.36666666666666;63.86666666666667;
46381;PMS5003;66809;52.974;-2.514;2023-02-08T06:55:48;69.26666666666667;63.63333333333333;
46381;PMS5003;66809;52.974;-2.514;2023-02-08T06:57:48;69.01666666666667;63.416666666666664;
46381;PMS5003;66809;52.974;-2.514;2023-02-08T06:59:48;68.95;63.43333333333333;
46381;PMS5003;66809;52.974;-2.514;2023-02-08T07:01:48;68.25;62.86666666666667;
46381;PMS5003;66809;52.974;-2.514;2023-02-08T07:03:49;68.38333333333334;62.95;
46381;PMS5003;66809;52.974;-2.514;2023-02-08T07:05:47;68.26666666666667;62.86666666666667;
46381;PMS5003;66809;52.974;-2.514;2023-02-08T07:07:48;68.78333333333333;63.21666666666667;
46381;PMS5003;66809;52.974;-2.514;2023-02-08T07:09:48;68.98333333333333;63.18333333333333;
46381;PMS5003;66809;52.974;-2.514;2023-02-08T07:11:48;68.65;62.916666666666664;
46381;PMS5003;66809;52.974;-2.514;2023-02-08T07:13:48;68.38333333333334;62.766666666666666;
46381;PMS5003;66809;52.974;-2.514;2023-02-08T07:15:47;67.78333333333333;62.3;
46381;PMS5003;66809;52.974;-2.514;2023-02-08T07:17:48;67.56666666666666;62.166666666666664;
46381;PMS5003;66809;52.974;-2.514;2023-02-08T07:19:48;67.38333333333334;62.166666666666664;
46381;PMS5003;66809;52.974;-2.514;2023-02-08T07:21:48;67.36666666666666;62.18333333333333;
46381;PMS5003;66809;52.974;-2.514;2023-02-08T07:23:47;67.28333333333333;62.1;
46381;PMS5003;66809;52.974;-2.514;2023-02-08T07:25:55;67.23333333333333;61.916666666666664;
46381;PMS5003;66809;52.974;-2.514;2023-02-08T07:27:48;67.25;61.916666666666664;
46381;PMS5003;66809;52.974;-2.514;2023-02-08T07:29:47;66.65;61.35;
46381;PMS5003;66809;52.974;-2.514;2023-02-08T07:31:48;66.45;61.06666666666667;
46381;PMS5003;66809;52.974;-2.514;2023-02-08T07:33:48;65.85;60.46666666666667;
46381;PMS5003;66809;52.974;-2.514;2023-02-08T07:35:48;65.61666666666666;60.21666666666667;
46381;PMS5003;66809;52.974;-2.514;2023-02-08T07:37:47;65.51666666666667;60.11666666666667;
46381;PMS5003;66809;52.974;-2.514;2023-02-08T07:39:53;65.35;59.95;
46381;PMS5003;66809;52.974;-2.514;2023-02-08T07:41:48;65.06666666666666;59.75;
46381;PMS5003;66809;52.974;-2.514;2023-02-08T07:43:48;65.01666666666667;59.75;
46381;PMS5003;66809;52.974;-2.514;2023-02-08T07:45:47;64.6;59.38333333333333;
46381;PMS5003;66809;52.974;-2.514;2023-02-08T07:47:49;64.35;59.266666666666666;
46381;PMS5003;66809;52.974;-2.514;2023-02-08T07:49:48;64.25;59.166666666666664;
46381;PMS5003;66809;52.974;-2.514;2023-02-08T07:51:48;63.63333333333333;58.516666666666666;
46381;PMS5003;66809;52.974;-2.514;2023-02-08T07:53:49;63.13333333333333;58.083333333333336;
46381;PMS5003;66809;52.974;-2.514;2023-02-08T07:55:47;62.45;57.516666666666666;
46381;PMS5003;66809;52.974;-2.514;2023-02-08T07:57:48;62.4;57.4;
46381;PMS5003;66809;52.974;-2.514;2023-02-08T07:59:47;62.35;57.28333333333333;
46381;PMS5003;66809;52.974;-2.514;2023-02-08T08:01:48;63.05;57.93333333333333;
46381;PMS5003;66809;52.974;-2.514;2023-02-08T08:03:48;62.8;57.75;
46381;PMS5003;66809;52.974;-2.514;2023-02-08T08:05:48;62.68333333333333;57.43333333333333;
46381;PMS5003;66809;52.974;-2.514;2023-02-08T08:07:48;62.55;57.38333333333333;
46381;PMS5003;66809;52.974;-2.514;2023-02-08T08:09:47;61.733333333333334;56.733333333333334;
46381;PMS5003;66809;52.974;-2.514;2023-02-08T08:11:48;61.4;56.416666666666664;
46381;PMS5003;66809;52.974;-2.514;2023-02-08T08:13:48;61.3;56.35;
46381;PMS5003;66809;52.974;-2.514;2023-02-08T08:15:48;61.28333333333333;56.21666666666667;
46381;PMS5003;66809;52.974;-2.514;2023-02-08T08:17:47;60.9;55.85;
46381;PMS5003;66809;52.974;-2.514;2023-02-08T08:19:48;60.63333333333333;55.61666666666667;
46381;PMS5003;66809;52.974;-2.514;2023-02-08T08:21:48;60.36666666666667;55.36666666666667;
46381;PMS5003;66809;52.974;-2.514;2023-02-08T08:23:48;60.233333333333334;55.11666666666667;
46381;PMS5003;66809;52.974;-2.514;2023-02-08T08:25:48;59.96666666666667;54.96666666666667;
46381;PMS5003;66809;52.974;-2.514;2023-02-08T08:27:48;59.7;54.71666666666667;
46381;PMS5003;66809;52.974;-2.514;2023-02-08T08:29:48;59.916666666666664;54.81666666666667;
46381;PMS5003;66809;52.974;-2.514;2023-02-08T08:31:47;59.81666666666667;54.68333333333333;
46381;PMS5003;66809;52.974;-2.514;2023-02-08T08:33:48;60.083333333333336;54.9;
46381;PMS5003;66809;52.974;-2.514;2023-02-08T08:35:48;60.25;55.05;
46381;PMS5003;66809;52.974;-2.514;2023-02-08T08:37:48;60.3;55.1;
46381;PMS5003;66809;52.974;-2.514;2023-02-08T08:39:48;60.233333333333334;55.05;
46381;PMS5003;66809;52.974;-2.514;2023-02-08T08:41:47;60.28333333333333;54.96666666666667;
46381;PMS5003;66809;52.974;-2.514;2023-02-08T08:43:48;60.21666666666667;54.88333333333333;
46381;PMS5003;66809;52.974;-2.514;2023-02-08T08:45:48;60.21666666666667;54.86666666666667;
46381;PMS5003;66809;52.974;-2.514;2023-02-08T08:47:48;60.5;55.03333333333333;
46381;PMS5003;66809;52.974;-2.514;2023-02-08T08:49:47;60.43333333333333;55.03333333333333;
46381;PMS5003;66809;52.974;-2.514;2023-02-08T08:51:48;60.833333333333336;55.38333333333333;
46381;PMS5003;66809;52.974;-2.514;2023-02-08T08:53:48;61.083333333333336;55.6;
46381;PMS5003;66809;52.974;-2.514;2023-02-08T08:55:48;61.1;55.6;
46381;PMS5003;66809;52.974;-2.514;2023-02-08T08:57:47;60.95;55.6;
46381;PMS5003;66809;52.974;-2.514;2023-02-08T08:59:48;60.61666666666667;55.35;
46381;PMS5003;66809;52.974;-2.514;2023-02-08T09:01:47;59.93333333333333;54.71666666666667;
46381;PMS5003;66809;52.974;-2.514;2023-02-08T09:03:48;59.266666666666666;54.1;
46381;PMS5003;66809;52.974;-2.514;2023-02-08T09:05:48;58.96666666666667;53.96666666666667;
46381;PMS5003;66809;52.974;-2.514;2023-02-08T09:07:48;58.43333333333333;53.483333333333334;
46381;PMS5003;66809;52.974;-2.514;2023-02-08T09:09:47;58.166666666666664;53.266666666666666;
46381;PMS5003;66809;52.974;-2.514;2023-02-08T09:11:48;57.86666666666667;52.983333333333334;
46381;PMS5003;66809;52.974;-2.514;2023-02-08T09:13:48;57.483333333333334;52.7;
46381;PMS5003;66809;52.974;-2.514;2023-02-08T09:15:48;56.55;51.9;
46381;PMS5003;66809;52.974;-2.514;2023-02-08T09:17:47;56.05;51.43333333333333;
46381;PMS5003;66809;52.974;-2.514;2023-02-08T09:19:48;55.43333333333333;50.88333333333333;
46381;PMS5003;66809;52.974;-2.514;2023-02-08T09:21:48;54.766666666666666;50.13333333333333;
46381;PMS5003;66809;52.974;-2.514;2023-02-08T09:23:48;54.45;49.93333333333333;
46381;PMS5003;66809;52.974;-2.514;2023-02-08T09:25:47;54.18333333333333;49.6;
46381;PMS5003;66809;52.974;-2.514;2023-02-08T09:27:48;53.766666666666666;49.21666666666667;
46381;PMS5003;66809;52.974;-2.514;2023-02-08T09:29:48;53.28333333333333;48.9;
46381;PMS5003;66809;52.974;-2.514;2023-02-08T09:31:48;52.833333333333336;48.516666666666666;
46381;PMS5003;66809;52.974;-2.514;2023-02-08T09:33:47;52.21666666666667;47.983333333333334;
46381;PMS5003;66809;52.974;-2.514;2023-02-08T09:35:48;51.78333333333333;47.65;